METAR AND TAF INFORMATION
METAR FOR KSUN
ADDS - METARS form results

(0743 UTC 19 December 2018)
Data provider http://aviationweather.gov/metar/data/
 
METAR text: KSUN 190735Z AUTO 36010G19KT 10SM CLR 02/M01 A3011 RMK AO2
Conditions at: KSUN (HAILEY/FRIEDMAN , ID, US) observed 0735 UTC 19 December 2018
Temperature: 2.0°C (36°F)
Dewpoint: -1.0°C (30°F) [RH = 80%]
Pressure (altimeter): 30.11 inches Hg (1019.7 mb)
Winds: from the N (360 degrees) at 12 MPH (10 knots; 5.1 m/s)
gusting to 22 MPH (19 knots; 9.8 m/s)
Visibility: 10 or more miles (16+ km)
Ceiling: at least 12,000 feet AGL
Clouds: sky clear below 12,000 feet AGL
Weather: automated observation with no human augmentation;
there may or may not be significant weather present at this time

METAR text: KSUN 190715Z AUTO 35017G23KT 10SM CLR 03/M02 A3010 RMK AO2
Conditions at: KSUN (HAILEY/FRIEDMAN , ID, US) observed 0715 UTC 19 December 2018
Temperature: 3.0°C (37°F)
Dewpoint: -2.0°C (28°F) [RH = 70%]
Pressure (altimeter): 30.10 inches Hg (1019.4 mb)
Winds: from the N (350 degrees) at 20 MPH (17 knots; 8.7 m/s)
gusting to 26 MPH (23 knots; 11.8 m/s)
Visibility: 10 or more miles (16+ km)
Ceiling: at least 12,000 feet AGL
Clouds: sky clear below 12,000 feet AGL
Weather: automated observation with no human augmentation;
there may or may not be significant weather present at this time

METAR text: KSUN 190655Z AUTO 33007KT 10SM SCT070 01/00 A3010 RMK AO2
Conditions at: KSUN (HAILEY/FRIEDMAN , ID, US) observed 0655 UTC 19 December 2018
Temperature: 1.0°C (34°F)
Dewpoint: 0.0°C (32°F) [RH = 93%]
Pressure (altimeter): 30.10 inches Hg (1019.4 mb)
Winds: from the NNW (330 degrees) at 8 MPH (7 knots; 3.6 m/s)
Visibility: 10 or more miles (16+ km)
Ceiling: at least 12,000 feet AGL
Clouds: scattered clouds at 7000 feet AGL
Weather: automated observation with no human augmentation;
there may or may not be significant weather present at this time

Forecast for: KSUN (HAILEY/FRIEDMAN , ID, US)
Text: KSUN 190520Z 1906/2012 VRB06KT P6SM -RASN OVC020
Forecast period: 0600 to 0900 UTC 19 December 2018
Forecast type: FROM: standard forecast or significant change
Winds: variable direction winds at 7 MPH (6 knots; 3.1 m/s)
Visibility: 6 or more miles 10+ km)
Ceiling: 2000 feet AGL
Clouds: overcast cloud deck at 2000 feet AGL
Weather: -RA -SN  (light rain, light snow)
Text: FM190900 32011KT P6SM SCT025 OVC040
Forecast period: 0900 to 1800 UTC 19 December 2018
Forecast type: FROM: standard forecast or significant change
Winds: from the NW (320 degrees) at 13 MPH (11 knots; 5.7 m/s)
Visibility: 6 or more miles 10+ km)
Ceiling: 4000 feet AGL
Clouds: scattered clouds at 2500 feet AGL
overcast cloud deck at 4000 feet AGL
Weather: no significant weather forecast for this period
Text: FM191800 17008KT P6SM BKN120
Forecast period: 1800 UTC 19 December 2018 to 0300 UTC 20 December 2018
Forecast type: FROM: standard forecast or significant change
Winds: from the S (170 degrees) at 9 MPH (8 knots; 4.1 m/s)
Visibility: 6 or more miles 10+ km)
Ceiling: 12000 feet AGL
Clouds: broken clouds at 12000 feet AGL
Weather: no significant weather forecast for this period
Text: FM200300 31008KT P6SM SCT150 AMD LTD TO CLD VIS AND WIND TIL 191400
Forecast period: 0300 to 1200 UTC 20 December 2018
Forecast type: FROM: standard forecast or significant change
Winds: from the NW (310 degrees) at 9 MPH (8 knots; 4.1 m/s)
Visibility: 6 or more miles 10+ km)
Ceiling: at least 12,000 feet AGL
Clouds: scattered clouds at 15000 feet AGL
Weather: no significant weather forecast for this period

 AIRPORT MAP

Esri Leaflet Quickstart
 RUNWAY INFORMATION
Runway 13 Runway length 6952 ft Runway width 100 ft
Runway elevation 5311 ft Runway displaced threshold 1501 ft Runway heading 145
Runway 31 Runway length 6952 ft Runway width 100 ft
Runway elevation 5269 ft Runway displaced threshold 0 ft Runway heading 325

 AIRPORT FREQUENCIES
Type ATIS Name ATIS Frequency 128.225 MHZ
Type AWOS Name AWOS Frequency 128.225 MHZ
Type CNTR Name SALT LAKE Frequency 118.05 MHZ
Type CTAF Name CTAF Frequency 125.6 MHZ
Type GND Name GND Frequency 121.7 MHZ
Type RDO Name BOISE RDO Frequency 122.4 MHZ
Type TWR Name HAILEY TWR Frequency 125.6 MHZ
Type UNIC Name UNICOM Frequency 122.95 MHZ

 AIRPORT NEAR NAVIGATION AIDS



Powered by Virtual Airlines Manager [v2.6.2]